| time (UTC) | temp F | wind direction | speed knots | gust knots | rain 1hr in | rain 24hr in | rain mn in | humidity % | barometer mb |
| 20260901231641 | 76 | 306 | 1.7 | 7.0 | 0.00 | 0.00 | 0.00 | 45 | 1016.8 |
| 20260901231137 | 76 | 311 | 0.0 | 0.0 | 0.00 | 0.00 | 0.00 | 46 | 1016.8 |
| 20260901230633 | 75 | 315 | 1.7 | 4.3 | 0.00 | 0.00 | 0.00 | 46 | 1017.1 |
| 20260901230132 | 75 | 321 | 0.9 | 3.5 | 0.00 | 0.00 | 0.00 | 47 | 1017.1 |
| 20260901225628 | 75 | 321 | 0.0 | 0.0 | 0.00 | 0.00 | 0.00 | 47 | 1016.8 |
| 20260901225128 | 75 | 321 | 0.0 | 0.0 | 0.00 | 0.00 | 0.00 | 46 | 1016.8 |
| 20260901224624 | 75 | 321 | 0.0 | 1.7 | 0.00 | 0.00 | 0.00 | 46 | 1017.1 |
| 20260901224120 | 75 | 276 | 0.0 | 0.0 | 0.00 | 0.00 | 0.00 | 46 | 1017.1 |
| 20260901223615 | 75 | 276 | 0.0 | 1.7 | 0.00 | 0.00 | 0.00 | 46 | 1017.1 |
| 20260901223110 | 75 | 292 | 0.0 | 3.5 | 0.00 | 0.00 | 0.00 | 45 | 1017.1 |
| 20260901222606 | 75 | 266 | 0.0 | 0.0 | 0.00 | 0.00 | 0.00 | 45 | 1017.1 |
| 20260901222101 | 75 | 298 | 0.0 | 1.7 | 0.00 | 0.00 | 0.00 | 45 | 1017.1 |
| 20260901221558 | 75 | 298 | 0.0 | 3.5 | 0.00 | 0.00 | 0.00 | 45 | 1017.1 |
| 20260901221053 | 75 | 298 | 0.0 | 0.0 | 0.00 | 0.00 | 0.00 | 46 | 1017.1 |
| 20260901220552 | 75 | 286 | 0.0 | 1.7 | 0.00 | 0.00 | 0.00 | 45 | 1017.5 |
| 20260901220051 | 75 | 296 | 0.0 | 1.7 | 0.00 | 0.00 | 0.00 | 45 | 1017.5 |
| 20260901215549 | 75 | 300 | 1.7 | 5.2 | 0.00 | 0.00 | 0.00 | 45 | 1017.5 |
| 20260901215044 | 75 | 308 | 0.0 | 1.7 | 0.00 | 0.00 | 0.00 | 46 | 1017.5 |
| 20260901214544 | 75 | 313 | 0.9 | 3.5 | 0.00 | 0.00 | 0.00 | 45 | 1017.5 |
| 20260901214044 | 75 | 310 | 0.9 | 4.3 | 0.00 | 0.00 | 0.00 | 45 | 1017.5 |
| 20260901213544 | 74 | 318 | 0.0 | 0.0 | 0.00 | 0.00 | 0.00 | 45 | 1017.5 |
| 20260901213044 | 74 | 316 | 0.0 | 1.7 | 0.00 | 0.00 | 0.00 | 45 | 1017.5 |
| 20260901212543 | 75 | 316 | 0.9 | 3.5 | 0.00 | 0.00 | 0.00 | 45 | 1017.5 |
| 20260901212041 | 75 | 302 | 1.7 | 4.3 | 0.00 | 0.00 | 0.00 | 45 | 1017.5 |
| 20260901211541 | 75 | 287 | 0.0 | 2.6 | 0.00 | 0.00 | 0.00 | 45 | 1017.5 |
| 20260901211037 | 75 | 296 | 2.6 | 6.1 | 0.00 | 0.00 | 0.00 | 45 | 1017.5 |
| 20260901210532 | 75 | 297 | 0.0 | 1.7 | 0.00 | 0.00 | 0.00 | 45 | 1017.5 |
| 20260901210029 | 75 | 292 | 1.7 | 5.2 | 0.00 | 0.00 | 0.00 | 46 | 1017.5 |
| 20260901205523 | 75 | 280 | 0.0 | 0.0 | 0.00 | 0.00 | 0.00 | 46 | 1017.5 |
| 20260901205018 | 74 | 280 | 0.0 | 1.7 | 0.00 | 0.00 | 0.00 | 46 | 1017.8 |
| 20260901204515 | 74 | 280 | 0.0 | 0.0 | 0.00 | 0.00 | 0.00 | 46 | 1017.8 |
| 20260901204015 | 74 | 288 | 0.9 | 5.2 | 0.00 | 0.00 | 0.00 | 46 | 1017.8 |
| 20260901203509 | 74 | 307 | 1.7 | 3.5 | 0.00 | 0.00 | 0.00 | 46 | 1017.8 |
| 20260901203004 | 74 | 307 | 0.0 | 0.0 | 0.00 | 0.00 | 0.00 | 47 | 1017.8 |
| 20260901202459 | 74 | 305 | 0.9 | 3.5 | 0.00 | 0.00 | 0.00 | 48 | 1017.8 |
| 20260901201955 | 73 | 302 | 0.0 | 0.0 | 0.00 | 0.00 | 0.00 | 47 | 1017.8 |
| 20260901201449 | 73 | 302 | 0.0 | 2.6 | 0.00 | 0.00 | 0.00 | 48 | 1018.1 |
| 20260901200944 | 73 | 302 | 0.0 | 1.7 | 0.00 | 0.00 | 0.00 | 48 | 1018.1 |
| 20260901200438 | 73 | 294 | 1.7 | 4.3 | 0.00 | 0.00 | 0.00 | 48 | 1017.8 |
| 20260901195938 | 73 | 281 | 0.9 | 3.5 | 0.00 | 0.00 | 0.00 | 48 | 1017.8 |
| 20260901195437 | 73 | 307 | 0.0 | 0.9 | 0.00 | 0.00 | 0.00 | 49 | 1018.1 |
| 20260901194931 | 73 | 307 | 0.9 | 3.5 | 0.00 | 0.00 | 0.00 | 49 | 1018.1 |
| 20260901194426 | 73 | 279 | 0.0 | 2.6 | 0.00 | 0.00 | 0.00 | 49 | 1018.1 |
| 20260901193923 | 73 | 279 | 0.9 | 2.6 | 0.00 | 0.00 | 0.00 | 48 | 1018.1 |
| 20260901193421 | 74 | 288 | 0.0 | 2.6 | 0.00 | 0.00 | 0.00 | 48 | 1018.1 |
| 20260901192921 | 73 | 311 | 0.0 | 1.7 | 0.00 | 0.00 | 0.00 | 49 | 1018.5 |
| 20260901192417 | 73 | 308 | 0.0 | 0.0 | 0.00 | 0.00 | 0.00 | 50 | 1018.1 |
| 20260901191913 | 73 | 308 | 0.0 | 0.9 | 0.00 | 0.00 | 0.00 | 50 | 1018.1 |
| 20260901191408 | 73 | 308 | 0.0 | 2.6 | 0.00 | 0.00 | 0.00 | 50 | 1018.1 |
| 20260901190905 | 73 | 302 | 0.0 | 3.5 | 0.00 | 0.00 | 0.00 | 50 | 1018.1 |
| 20260901190405 | 73 | 302 | 0.0 | 0.0 | 0.00 | 0.00 | 0.00 | 50 | 1018.5 |
| 20260901185903 | 72 | 302 | 0.9 | 2.6 | 0.00 | 0.00 | 0.00 | 50 | 1018.1 |
| 20260901185401 | 72 | 302 | 0.0 | 1.7 | 0.00 | 0.00 | 0.00 | 51 | 1018.1 |
| 20260901184857 | 72 | 294 | 0.0 | 1.7 | 0.00 | 0.00 | 0.00 | 52 | 1018.1 |
| 20260901184352 | 71 | 293 | 0.0 | 2.6 | 0.00 | 0.00 | 0.00 | 53 | 1018.5 |
| 20260901183848 | 71 | 293 | 0.0 | 0.0 | 0.00 | 0.00 | 0.00 | 53 | 1018.5 |
| 20260901183347 | 71 | 293 | 0.0 | 0.0 | 0.00 | 0.00 | 0.00 | 53 | 1018.5 |
| 20260901182843 | 71 | 293 | 0.0 | 1.7 | 0.00 | 0.00 | 0.00 | 53 | 1018.5 |
| 20260901182343 | 71 | 293 | 0.0 | 1.7 | 0.00 | 0.00 | 0.00 | 53 | 1018.5 |
| 20260901181838 | 70 | 293 | 0.9 | 2.6 | 0.00 | 0.00 | 0.00 | 54 | 1018.5 |
| 20260901181333 | 70 | 290 | 0.0 | 2.6 | 0.00 | 0.00 | 0.00 | 54 | 1018.5 |
| 20260901180832 | 70 | 290 | 0.0 | 0.0 | 0.00 | 0.00 | 0.00 | 54 | 1018.5 |
| 20260901180331 | 70 | 312 | 0.0 | 2.6 | 0.00 | 0.00 | 0.00 | 54 | 1018.5 |
| 20260901175831 | 69 | 312 | 0.0 | 1.7 | 0.00 | 0.00 | 0.00 | 55 | 1018.8 |
| 20260901175331 | 69 | 302 | 1.7 | 6.1 | 0.00 | 0.00 | 0.00 | 55 | 1018.5 |
| 20260901174826 | 69 | 297 | 0.0 | 0.0 | 0.00 | 0.00 | 0.00 | 55 | 1018.5 |
| 20260901174321 | 69 | 300 | 0.0 | 3.5 | 0.00 | 0.00 | 0.00 | 56 | 1018.5 |
| 20260901173817 | 68 | 302 | 0.0 | 3.5 | 0.00 | 0.00 | 0.00 | 57 | 1018.5 |
| 20260901173312 | 68 | 296 | 0.0 | 0.0 | 0.00 | 0.00 | 0.00 | 58 | 1018.5 |
| 20260901172809 | 68 | 296 | 0.0 | 0.0 | 0.00 | 0.00 | 0.00 | 59 | 1018.8 |
| 20260901172307 | 67 | 296 | 0.9 | 2.6 | 0.00 | 0.00 | 0.00 | 59 | 1018.8 |
| 20260901171806 | 67 | 296 | 0.0 | 0.9 | 0.00 | 0.00 | 0.00 | 59 | 1018.5 |
| 20260901171305 | 66 | 310 | 0.0 | 1.7 | 0.00 | 0.00 | 0.00 | 59 | 1018.5 |
| 20260901170805 | 66 | 311 | 0.9 | 4.3 | 0.00 | 0.00 | 0.00 | 59 | 1018.8 |
| 20260901170304 | 66 | 318 | 0.9 | 3.5 | 0.00 | 0.00 | 0.00 | 60 | 1018.8 |
| 20260901165803 | 66 | 319 | 0.0 | 0.9 | 0.00 | 0.00 | 0.00 | 60 | 1018.8 |
| 20260901165258 | 65 | 315 | 0.9 | 2.6 | 0.00 | 0.00 | 0.00 | 60 | 1019.2 |
| 20260901164755 | 65 | 321 | 0.0 | 3.5 | 0.00 | 0.00 | 0.00 | 61 | 1019.2 |
| 20260901164250 | 65 | 302 | 0.0 | 0.0 | 0.00 | 0.00 | 0.00 | 62 | 1019.2 |
| 20260901163745 | 64 | 302 | 0.0 | 0.0 | 0.00 | 0.00 | 0.00 | 63 | 1019.2 |
| 20260901163244 | 64 | 302 | 0.0 | 0.0 | 0.00 | 0.00 | 0.00 | 63 | 1019.2 |
| 20260901162740 | 64 | 302 | 0.0 | 0.0 | 0.00 | 0.00 | 0.00 | 64 | 1018.8 |
| 20260901162239 | 63 | 302 | 0.0 | 0.0 | 0.00 | 0.00 | 0.00 | 65 | 1018.8 |
| 20260901161738 | 63 | 302 | 0.0 | 0.0 | 0.00 | 0.00 | 0.00 | 65 | 1018.8 |
| 20260901161232 | 62 | 302 | 0.0 | 0.0 | 0.00 | 0.00 | 0.00 | 66 | 1018.8 |
| 20260901160729 | 62 | 302 | 0.0 | 2.6 | 0.00 | 0.00 | 0.00 | 67 | 1018.8 |
| 20260901160224 | 62 | 302 | 0.0 | 0.0 | 0.00 | 0.00 | 0.00 | 68 | 1018.8 |
| 20260901155723 | 61 | 302 | 0.0 | 0.0 | 0.00 | 0.00 | 0.00 | 68 | 1018.8 |
| 20260901155218 | 61 | 302 | 0.0 | 0.0 | 0.00 | 0.00 | 0.00 | 69 | 1018.8 |
| 20260901154714 | 60 | 302 | 0.0 | 0.0 | 0.00 | 0.00 | 0.00 | 70 | 1018.8 |
| 20260901154209 | 60 | 302 | 0.0 | 0.0 | 0.00 | 0.00 | 0.00 | 71 | 1018.5 |
| 20260901153704 | 60 | 302 | 0.0 | 0.0 | 0.00 | 0.00 | 0.00 | 73 | 1018.5 |
| 20260901153203 | 60 | 302 | 0.0 | 0.0 | 0.00 | 0.00 | 0.00 | 73 | 1018.5 |
| 20260901152658 | 59 | 302 | 0.0 | 0.0 | 0.00 | 0.00 | 0.00 | 74 | 1018.5 |
| 20260901152156 | 59 | 302 | 0.0 | 0.0 | 0.00 | 0.00 | 0.00 | 76 | 1018.5 |
| 20260901151653 | 58 | 302 | 0.0 | 0.0 | 0.00 | 0.00 | 0.00 | 77 | 1018.5 |
| 20260901151152 | 57 | 302 | 0.0 | 0.0 | 0.00 | 0.00 | 0.00 | 79 | 1018.1 |
| 20260901150651 | 57 | 302 | 0.0 | 0.0 | 0.00 | 0.00 | 0.00 | 80 | 1018.1 |
| 20260901150149 | 57 | 302 | 0.0 | 0.0 | 0.00 | 0.00 | 0.00 | 81 | 1018.1 |
| 20260901145648 | 56 | 302 | 0.0 | 0.0 | 0.00 | 0.00 | 0.00 | 81 | 1018.1 |
| 20260901145148 | 56 | 302 | 0.0 | 0.0 | 0.00 | 0.00 | 0.00 | 81 | 1018.1 |
| 20260901144643 | 56 | 302 | 0.0 | 0.0 | 0.00 | 0.00 | 0.00 | 81 | 1018.1 |
| 20260901144138 | 56 | 302 | 0.0 | 0.0 | 0.00 | 0.00 | 0.00 | 81 | 1018.1 |
| 20260901143633 | 55 | 302 | 0.0 | 0.0 | 0.00 | 0.00 | 0.00 | 82 | 1018.1 |
| 20260901143130 | 55 | 302 | 0.0 | 0.0 | 0.00 | 0.00 | 0.00 | 82 | 1017.8 |
| 20260901142626 | 55 | 302 | 0.0 | 0.0 | 0.00 | 0.00 | 0.00 | 82 | 1017.8 |
| 20260901142125 | 55 | 302 | 0.0 | 0.0 | 0.00 | 0.00 | 0.00 | 82 | 1017.8 |
| 20260901141619 | 55 | 302 | 0.0 | 0.0 | 0.00 | 0.00 | 0.00 | 83 | 1017.5 |
| 20260901141114 | 55 | 302 | 0.0 | 0.0 | 0.00 | 0.00 | 0.00 | 83 | 1017.5 |
| 20260901140613 | 55 | 302 | 0.0 | 0.0 | 0.00 | 0.00 | 0.00 | 83 | 1017.5 |
| 20260901140112 | 55 | 302 | 0.0 | 0.0 | 0.00 | 0.00 | 0.00 | 83 | 1017.5 |
| 20260901135612 | 55 | 302 | 0.0 | 0.0 | 0.00 | 0.00 | 0.00 | 83 | 1017.5 |
| 20260901135107 | 55 | 302 | 0.0 | 0.0 | 0.00 | 0.00 | 0.00 | 83 | 1017.5 |
| 20260901134603 | 55 | 302 | 0.0 | 0.0 | 0.00 | 0.00 | 0.00 | 83 | 1017.5 |
| 20260901134058 | 55 | 302 | 0.0 | 0.0 | 0.00 | 0.00 | 0.00 | 83 | 1017.5 |
| 20260901133557 | 55 | 302 | 0.0 | 0.0 | 0.00 | 0.00 | 0.00 | 83 | 1017.5 |
| 20260901133056 | 55 | 302 | 0.0 | 0.0 | 0.00 | 0.00 | 0.00 | 83 | 1017.5 |
| 20260901132550 | 55 | 302 | 0.0 | 0.0 | 0.00 | 0.00 | 0.00 | 82 | 1017.1 |
| 20260901132045 | 55 | 302 | 0.0 | 0.0 | 0.00 | 0.00 | 0.00 | 82 | 1017.1 |
| 20260901131544 | 55 | 302 | 0.0 | 0.0 | 0.00 | 0.00 | 0.00 | 81 | 1017.1 |
| 20260901131040 | 55 | 302 | 0.0 | 0.0 | 0.00 | 0.00 | 0.00 | 81 | 1017.1 |
| 20260901130540 | 56 | 302 | 0.0 | 0.0 | 0.00 | 0.00 | 0.00 | 81 | 1017.1 |
| 20260901130038 | 56 | 302 | 0.0 | 0.0 | 0.00 | 0.00 | 0.00 | 80 | 1016.8 |
| 20260901125114 | 56 | 302 | 0.0 | 0.0 | 0.00 | 0.00 | 0.00 | 80 | 1016.8 |
| 20260901124613 | 56 | 302 | 0.0 | 0.0 | 0.00 | 0.00 | 0.00 | 80 | 1016.8 |
| 20260901124108 | 56 | 302 | 0.0 | 0.0 | 0.00 | 0.00 | 0.00 | 80 | 1016.8 |
| 20260901123603 | 57 | 302 | 0.0 | 0.0 | 0.00 | 0.00 | 0.00 | 79 | 1016.8 |
| 20260901123102 | 57 | 302 | 0.0 | 0.0 | 0.00 | 0.00 | 0.00 | 79 | 1017.1 |
| 20260901122601 | 57 | 302 | 0.0 | 0.0 | 0.00 | 0.00 | 0.00 | 78 | 1017.1 |
| 20260901122100 | 57 | 302 | 0.0 | 0.0 | 0.00 | 0.00 | 0.00 | 78 | 1017.1 |
| 20260901121555 | 57 | 302 | 0.0 | 0.0 | 0.00 | 0.00 | 0.00 | 78 | 1016.8 |
| 20260901121050 | 57 | 302 | 0.0 | 0.0 | 0.00 | 0.00 | 0.00 | 78 | 1016.8 |
| 20260901120550 | 57 | 302 | 0.0 | 0.0 | 0.00 | 0.00 | 0.00 | 78 | 1016.8 |
| 20260901120046 | 57 | 302 | 0.0 | 1.7 | 0.00 | 0.00 | 0.00 | 78 | 1016.8 |
| 20260901115541 | 57 | 302 | 0.0 | 0.0 | 0.00 | 0.00 | 0.00 | 78 | 1016.8 |
| 20260901115038 | 57 | 302 | 0.0 | 0.0 | 0.00 | 0.00 | 0.00 | 78 | 1016.8 |
| 20260901114534 | 57 | 302 | 0.0 | 0.0 | 0.00 | 0.00 | 0.00 | 78 | 1016.5 |
| 20260901114032 | 57 | 302 | 0.0 | 0.0 | 0.00 | 0.00 | 0.00 | 78 | 1016.5 |
| 20260901113531 | 57 | 302 | 0.0 | 0.0 | 0.00 | 0.00 | 0.00 | 77 | 1016.5 |
| 20260901113028 | 57 | 302 | 0.0 | 0.0 | 0.00 | 0.00 | 0.00 | 77 | 1016.5 |
| 20260901112527 | 57 | 302 | 0.0 | 0.0 | 0.00 | 0.00 | 0.00 | 78 | 1016.5 |
| 20260901112022 | 57 | 302 | 0.0 | 0.0 | 0.00 | 0.00 | 0.00 | 77 | 1016.5 |
| 20260901111521 | 57 | 302 | 0.0 | 0.0 | 0.00 | 0.00 | 0.00 | 77 | 1016.5 |
| 20260901111019 | 57 | 302 | 0.0 | 0.0 | 0.00 | 0.00 | 0.00 | 77 | 1016.5 |
| 20260901110515 | 57 | 302 | 0.0 | 0.0 | 0.00 | 0.00 | 0.00 | 77 | 1016.1 |
| 20260901110011 | 58 | 302 | 0.0 | 0.0 | 0.00 | 0.00 | 0.00 | 77 | 1016.1 |
| 20260901105507 | 58 | 302 | 0.0 | 0.0 | 0.00 | 0.00 | 0.00 | 77 | 1016.1 |
| 20260901105006 | 58 | 302 | 0.0 | 0.0 | 0.00 | 0.00 | 0.00 | 77 | 1016.1 |
| 20260901104502 | 58 | 302 | 0.0 | 0.0 | 0.00 | 0.00 | 0.00 | 77 | 1016.1 |
| 20260901103957 | 58 | 302 | 0.0 | 0.0 | 0.00 | 0.00 | 0.00 | 77 | 1016.1 |
| 20260901103452 | 58 | 302 | 0.0 | 0.0 | 0.00 | 0.00 | 0.00 | 77 | 1016.1 |
| 20260901102948 | 58 | 302 | 0.0 | 0.0 | 0.00 | 0.00 | 0.00 | 77 | 1016.1 |
| 20260901102447 | 58 | 302 | 0.0 | 0.9 | 0.00 | 0.00 | 0.00 | 76 | 1016.1 |
| 20260901101943 | 58 | 302 | 0.0 | 2.6 | 0.00 | 0.00 | 0.00 | 76 | 1016.1 |
| 20260901101438 | 58 | 302 | 0.0 | 0.0 | 0.00 | 0.00 | 0.00 | 76 | 1016.1 |
| 20260901100937 | 58 | 302 | 0.0 | 0.0 | 0.00 | 0.00 | 0.00 | 76 | 1016.1 |
| 20260901100432 | 58 | 302 | 0.0 | 0.9 | 0.00 | 0.00 | 0.00 | 75 | 1016.1 |
| 20260901095932 | 59 | 302 | 0.0 | 2.6 | 0.00 | 0.00 | 0.00 | 75 | 1016.1 |
| 20260901095431 | 59 | 302 | 0.0 | 3.5 | 0.00 | 0.00 | 0.00 | 75 | 1016.1 |
| 20260901094929 | 59 | 302 | 0.9 | 3.5 | 0.00 | 0.00 | 0.00 | 75 | 1016.1 |
| 20260901094429 | 59 | 302 | 0.9 | 3.5 | 0.00 | 0.00 | 0.00 | 74 | 1016.1 |
| 20260901093930 | 59 | 302 | 0.9 | 3.5 | 0.00 | 0.00 | 0.00 | 74 | 1016.1 |
| 20260901093429 | 59 | 302 | 0.0 | 2.6 | 0.00 | 0.00 | 0.00 | 74 | 1016.1 |
| 20260901092924 | 59 | 302 | 0.9 | 3.5 | 0.00 | 0.00 | 0.00 | 74 | 1016.1 |
| 20260901092420 | 59 | 302 | 0.9 | 3.5 | 0.00 | 0.00 | 0.00 | 74 | 1016.1 |
| 20260901091916 | 59 | 302 | 0.0 | 2.6 | 0.00 | 0.00 | 0.00 | 74 | 1016.1 |
| 20260901091416 | 59 | 302 | 0.9 | 2.6 | 0.00 | 0.00 | 0.00 | 74 | 1016.1 |
| 20260901090911 | 59 | 302 | 0.9 | 3.5 | 0.00 | 0.00 | 0.00 | 73 | 1016.1 |
| 20260901090411 | 59 | 302 | 0.9 | 2.6 | 0.00 | 0.00 | 0.00 | 73 | 1016.1 |
| 20260901085907 | 59 | 302 | 0.9 | 4.3 | 0.00 | 0.00 | 0.00 | 73 | 1016.1 |
| 20260901085402 | 59 | 298 | 1.7 | 5.2 | 0.00 | 0.00 | 0.00 | 73 | 1016.1 |
| 20260901084859 | 59 | 302 | 0.0 | 3.5 | 0.00 | 0.00 | 0.00 | 73 | 1016.1 |
| 20260901084354 | 59 | 302 | 0.9 | 1.7 | 0.00 | 0.00 | 0.00 | 73 | 1016.1 |
| 20260901083849 | 59 | 300 | 0.9 | 4.3 | 0.00 | 0.00 | 0.00 | 73 | 1016.1 |
| 20260901083349 | 59 | 305 | 1.7 | 5.2 | 0.00 | 0.00 | 0.00 | 73 | 1016.1 |
| 20260901082848 | 60 | 305 | 0.9 | 3.5 | 0.00 | 0.00 | 0.00 | 73 | 1016.1 |
| 20260901082343 | 60 | 302 | 0.9 | 1.7 | 0.00 | 0.00 | 0.00 | 74 | 1016.1 |
| 20260901081838 | 60 | 302 | 1.7 | 3.5 | 0.00 | 0.00 | 0.00 | 73 | 1016.1 |
| 20260901081334 | 60 | 290 | 0.9 | 4.3 | 0.00 | 0.00 | 0.00 | 73 | 1016.1 |
| 20260901080834 | 60 | 312 | 0.0 | 2.6 | 0.00 | 0.00 | 0.00 | 73 | 1016.1 |
| 20260901080334 | 60 | 311 | 0.0 | 0.0 | 0.00 | 0.00 | 0.00 | 73 | 1016.1 |
| 20260901075828 | 60 | 306 | 0.0 | 2.6 | 0.00 | 0.00 | 0.00 | 73 | 1016.1 |
| 20260901075323 | 60 | 327 | 0.0 | 1.7 | 0.00 | 0.00 | 0.00 | 73 | 1016.1 |
| 20260901074818 | 60 | 327 | 0.9 | 2.6 | 0.00 | 0.00 | 0.00 | 73 | 1016.1 |
| 20260901074313 | 60 | 327 | 0.0 | 2.6 | 0.00 | 0.00 | 0.00 | 72 | 1016.1 |
| 20260901073808 | 60 | 327 | 0.0 | 1.7 | 0.00 | 0.00 | 0.00 | 72 | 1016.1 |
| 20260901073304 | 60 | 327 | 0.0 | 0.0 | 0.00 | 0.00 | 0.00 | 72 | 1016.1 |
| 20260901072800 | 60 | 302 | 0.9 | 3.5 | 0.00 | 0.00 | 0.00 | 72 | 1016.1 |
| 20260901072259 | 60 | 305 | 0.0 | 2.6 | 0.00 | 0.00 | 0.00 | 72 | 1016.1 |
| 20260901071754 | 60 | 305 | 0.0 | 0.0 | 0.00 | 0.00 | 0.00 | 71 | 1016.1 |
| 20260901071253 | 60 | 305 | 0.9 | 4.3 | 0.00 | 0.00 | 0.00 | 71 | 1016.1 |
| 20260901070752 | 60 | 285 | 0.9 | 6.1 | 0.00 | 0.00 | 0.00 | 71 | 1016.1 |
| 20260901070248 | 61 | 325 | 1.7 | 4.3 | 0.00 | 0.00 | 0.00 | 71 | 1016.1 |
| 20260901065747 | 61 | 292 | 0.9 | 3.5 | 0.00 | 0.00 | 0.00 | 71 | 1016.1 |
| 20260901065242 | 61 | 302 | 0.9 | 6.1 | 0.00 | 0.00 | 0.00 | 71 | 1016.1 |
| 20260901064738 | 61 | 307 | 0.9 | 3.5 | 0.00 | 0.00 | 0.00 | 71 | 1016.1 |
| 20260901064235 | 61 | 302 | 3.5 | 7.0 | 0.00 | 0.00 | 0.00 | 71 | 1016.1 |
| 20260901063732 | 61 | 300 | 0.9 | 3.5 | 0.00 | 0.00 | 0.00 | 71 | 1015.8 |
| 20260901063227 | 61 | 313 | 0.9 | 3.5 | 0.00 | 0.00 | 0.00 | 71 | 1015.8 |
| 20260901062723 | 61 | 296 | 0.0 | 1.7 | 0.00 | 0.00 | 0.00 | 71 | 1015.8 |
| 20260901062219 | 61 | 290 | 1.7 | 7.0 | 0.00 | 0.00 | 0.00 | 71 | 1015.8 |
| 20260901061715 | 61 | 310 | 1.7 | 7.0 | 0.00 | 0.00 | 0.00 | 71 | 1015.8 |
| 20260901061214 | 61 | 307 | 0.0 | 2.6 | 0.00 | 0.00 | 0.00 | 71 | 1015.8 |
| 20260901060709 | 61 | 301 | 1.7 | 6.1 | 0.00 | 0.00 | 0.00 | 71 | 1015.8 |
| 20260901060205 | 61 | 284 | 0.9 | 3.5 | 0.00 | 0.00 | 0.00 | 71 | 1015.8 |
| 20260901055700 | 61 | 298 | 0.9 | 5.2 | 0.00 | 0.00 | 0.00 | 71 | 1015.8 |
| 20260901055157 | 61 | 321 | 0.0 | 1.7 | 0.00 | 0.00 | 0.00 | 70 | 1015.8 |
| 20260901054653 | 61 | 324 | 0.0 | 3.5 | 0.00 | 0.00 | 0.00 | 70 | 1015.8 |
| 20260901054149 | 62 | 316 | 1.7 | 4.3 | 0.00 | 0.00 | 0.00 | 70 | 1015.8 |
| 20260901053645 | 62 | 297 | 1.7 | 7.0 | 0.00 | 0.00 | 0.00 | 70 | 1015.8 |
| 20260901053141 | 62 | 311 | 0.9 | 2.6 | 0.00 | 0.00 | 0.00 | 70 | 1015.8 |
| 20260901052636 | 62 | 311 | 0.0 | 3.5 | 0.00 | 0.00 | 0.00 | 70 | 1015.8 |
| 20260901052131 | 62 | 303 | 0.9 | 3.5 | 0.00 | 0.00 | 0.00 | 70 | 1015.8 |
| 20260901051631 | 62 | 310 | 0.9 | 3.5 | 0.00 | 0.00 | 0.00 | 70 | 1015.8 |
| 20260901051130 | 62 | 305 | 0.9 | 3.5 | 0.00 | 0.00 | 0.00 | 69 | 1015.4 |
| 20260901050625 | 62 | 302 | 1.7 | 5.2 | 0.00 | 0.00 | 0.00 | 69 | 1015.4 |
| 20260901050121 | 62 | 284 | 1.7 | 4.3 | 0.00 | 0.00 | 0.00 | 69 | 1015.4 |
| 20260901045621 | 62 | 330 | 0.0 | 2.6 | 0.00 | 0.00 | 0.00 | 69 | 1015.4 |
| 20260901045116 | 63 | 279 | 1.7 | 6.1 | 0.00 | 0.00 | 0.00 | 69 | 1015.4 |
| 20260901044611 | 63 | 298 | 0.9 | 3.5 | 0.00 | 0.00 | 0.00 | 69 | 1015.4 |
| 20260901044107 | 63 | 300 | 0.9 | 3.5 | 0.00 | 0.00 | 0.00 | 69 | 1015.4 |
| 20260901043603 | 63 | 298 | 1.7 | 6.1 | 0.00 | 0.00 | 0.00 | 68 | 1015.4 |
| 20260901043058 | 63 | 302 | 0.9 | 7.8 | 0.00 | 0.00 | 0.00 | 68 | 1015.4 |
| 20260901042557 | 63 | 311 | 0.0 | 1.7 | 0.00 | 0.00 | 0.00 | 68 | 1015.4 |
| 20260901042053 | 63 | 303 | 0.9 | 2.6 | 0.00 | 0.00 | 0.00 | 68 | 1015.4 |
| 20260901041548 | 63 | 287 | 0.9 | 3.5 | 0.00 | 0.00 | 0.00 | 68 | 1015.1 |
| 20260901041048 | 64 | 284 | 2.6 | 6.1 | 0.00 | 0.00 | 0.00 | 67 | 1015.1 |
| 20260901040548 | 64 | 309 | 1.7 | 6.1 | 0.00 | 0.00 | 0.00 | 67 | 1015.1 |
| 20260901040043 | 64 | 308 | 0.0 | 2.6 | 0.00 | 0.00 | 0.00 | 67 | 1014.8 |
| 20260901035540 | 64 | 298 | 3.5 | 7.0 | 0.00 | 0.00 | 0.00 | 67 | 1014.8 |
| 20260901035039 | 64 | 298 | 1.7 | 4.3 | 0.00 | 0.00 | 0.00 | 66 | 1014.8 |
| 20260901034539 | 65 | 301 | 1.7 | 5.2 | 0.00 | 0.00 | 0.00 | 66 | 1014.8 |
| 20260901034034 | 65 | 301 | 1.7 | 6.1 | 0.00 | 0.00 | 0.00 | 66 | 1014.8 |
| 20260901033533 | 65 | 294 | 2.6 | 6.1 | 0.00 | 0.00 | 0.00 | 65 | 1014.4 |
| 20260901033033 | 65 | 311 | 1.7 | 5.2 | 0.00 | 0.00 | 0.00 | 65 | 1014.4 |
| 20260901032532 | 66 | 303 | 1.7 | 3.5 | 0.00 | 0.00 | 0.00 | 64 | 1014.1 |
| 20260901032027 | 66 | 302 | 1.7 | 8.7 | 0.00 | 0.00 | 0.00 | 64 | 1014.1 |
| 20260901031522 | 66 | 294 | 3.5 | 7.0 | 0.00 | 0.00 | 0.00 | 63 | 1014.1 |
| 20260901031018 | 67 | 295 | 2.6 | 6.1 | 0.00 | 0.00 | 0.00 | 63 | 1014.1 |
| 20260901030518 | 67 | 298 | 3.5 | 6.1 | 0.00 | 0.00 | 0.00 | 62 | 1013.7 |
| 20260901030013 | 68 | 293 | 3.5 | 7.8 | 0.00 | 0.00 | 0.00 | 62 | 1013.7 |
| 20260901025513 | 68 | 311 | 2.6 | 6.1 | 0.00 | 0.00 | 0.00 | 62 | 1013.7 |
| 20260901025007 | 69 | 297 | 2.6 | 7.0 | 0.00 | 0.00 | 0.00 | 61 | 1013.7 |
| 20260901024502 | 69 | 300 | 2.6 | 6.1 | 0.00 | 0.00 | 0.00 | 61 | 1013.7 |
| 20260901024001 | 70 | 293 | 1.7 | 7.8 | 0.00 | 0.00 | 0.00 | 60 | 1013.7 |
| 20260901023500 | 70 | 310 | 0.0 | 0.0 | 0.00 | 0.00 | 0.00 | 60 | 1013.7 |
| 20260901022955 | 70 | 295 | 0.9 | 3.5 | 0.00 | 0.00 | 0.00 | 59 | 1013.7 |
| 20260901022451 | 71 | 306 | 1.7 | 4.3 | 0.00 | 0.00 | 0.00 | 58 | 1013.4 |
| 20260901021946 | 71 | 298 | 3.5 | 9.6 | 0.00 | 0.00 | 0.00 | 57 | 1013.4 |
| 20260901021442 | 72 | 297 | 2.6 | 7.0 | 0.00 | 0.00 | 0.00 | 56 | 1013.4 |
| 20260901020937 | 72 | 302 | 1.7 | 6.1 | 0.00 | 0.00 | 0.00 | 55 | 1013.4 |
| 20260901020432 | 73 | 296 | 2.6 | 7.0 | 0.00 | 0.00 | 0.00 | 54 | 1013.4 |
| 20260901015931 | 73 | 297 | 3.5 | 6.1 | 0.00 | 0.00 | 0.00 | 53 | 1013.4 |
| 20260901015428 | 73 | 307 | 1.7 | 6.1 | 0.00 | 0.00 | 0.00 | 52 | 1013.4 |
| 20260901014926 | 74 | 310 | 1.7 | 5.2 | 0.00 | 0.00 | 0.00 | 51 | 1013.1 |
| 20260901014424 | 74 | 288 | 3.5 | 8.7 | 0.00 | 0.00 | 0.00 | 51 | 1013.1 |
| 20260901013919 | 75 | 280 | 1.7 | 6.1 | 0.00 | 0.00 | 0.00 | 50 | 1013.1 |
| 20260901013414 | 75 | 293 | 1.7 | 5.2 | 0.00 | 0.00 | 0.00 | 50 | 1013.1 |
| 20260901012909 | 76 | 287 | 0.9 | 3.5 | 0.00 | 0.00 | 0.00 | 49 | 1013.1 |
| 20260901012404 | 76 | 283 | 2.6 | 8.7 | 0.00 | 0.00 | 0.00 | 49 | 1013.1 |
| 20260901011900 | 76 | 293 | 0.9 | 3.5 | 0.00 | 0.00 | 0.00 | 48 | 1013.1 |
| 20260901011355 | 76 | 290 | 1.7 | 9.6 | 0.00 | 0.00 | 0.00 | 48 | 1013.1 |
| 20260901010854 | 77 | 305 | 0.9 | 6.1 | 0.00 | 0.00 | 0.00 | 48 | 1013.1 |
| 20260901010349 | 76 | 319 | 0.9 | 2.6 | 0.00 | 0.00 | 0.00 | 47 | 1013.1 |
| 20260901005847 | 76 | 312 | 1.7 | 6.1 | 0.00 | 0.00 | 0.00 | 47 | 1013.1 |
| 20260901005343 | 77 | 297 | 1.7 | 3.5 | 0.00 | 0.00 | 0.00 | 47 | 1013.1 |
| 20260901004838 | 77 | 307 | 0.9 | 3.5 | 0.00 | 0.00 | 0.00 | 47 | 1013.1 |
| 20260901004337 | 77 | 288 | 0.9 | 5.2 | 0.00 | 0.00 | 0.00 | 47 | 1013.1 |
| 20260901003832 | 76 | 281 | 1.7 | 4.3 | 0.00 | 0.00 | 0.00 | 47 | 1013.1 |
| 20260901003328 | 76 | 297 | 1.7 | 5.2 | 0.00 | 0.00 | 0.00 | 47 | 1013.1 |
| 20260901002826 | 76 | 305 | 1.7 | 5.2 | 0.00 | 0.00 | 0.00 | 47 | 1013.1 |
| 20260901002320 | 77 | 297 | 1.7 | 3.5 | 0.00 | 0.00 | 0.00 | 47 | 1013.1 |
| 20260901001820 | 77 | 290 | 1.7 | 5.2 | 0.00 | 0.00 | 0.00 | 46 | 1013.1 |
| 20260901001316 | 77 | 288 | 1.7 | 7.0 | 0.00 | 0.00 | 0.00 | 46 | 1013.1 |
| 20260901000816 | 77 | 288 | 2.6 | 6.1 | 0.00 | 0.00 | 0.00 | 46 | 1013.1 |
| 20260901000314 | 77 | 298 | 1.7 | 2.6 | 0.00 | 0.00 | 0.00 | 47 | 1013.1 |
| 20260831235810 | 77 | 296 | 1.7 | 5.2 | 0.00 | 0.00 | 0.00 | 46 | 1013.1 |
| 20260831235306 | 77 | 305 | 0.9 | 3.5 | 0.00 | 0.00 | 0.00 | 46 | 1013.1 |
| 20260831234801 | 77 | 306 | 2.6 | 6.1 | 0.00 | 0.00 | 0.00 | 47 | 1013.1 |
| 20260831234301 | 77 | 293 | 1.7 | 5.2 | 0.00 | 0.00 | 0.00 | 48 | 1013.1 |
| 20260831233756 | 77 | 289 | 1.7 | 6.1 | 0.00 | 0.00 | 0.00 | 48 | 1013.4 |
| 20260831233251 | 77 | 298 | 2.6 | 5.2 | 0.00 | 0.00 | 0.00 | 47 | 1013.4 |
| 20260831232746 | 77 | 296 | 3.5 | 7.8 | 0.00 | 0.00 | 0.00 | 48 | 1013.4 |
| 20260831232243 | 77 | 294 | 2.6 | 7.8 | 0.00 | 0.00 | 0.00 | 47 | 1013.4 |